sensor_id;sensor_type;location;lat;lon;timestamp;temperature;humidity
3644;DHT22;1838;50.742;7.158;2024-03-02T00:00:15;9.20;99.90
3644;DHT22;1838;50.742;7.158;2024-03-02T00:02:42;9.20;99.90
3644;DHT22;1838;50.742;7.158;2024-03-02T00:05:11;9.20;99.90
3644;DHT22;1838;50.742;7.158;2024-03-02T00:07:37;9.30;99.90
3644;DHT22;1838;50.742;7.158;2024-03-02T00:10:08;9.30;99.90
3644;DHT22;1838;50.742;7.158;2024-03-02T00:12:40;9.30;99.90
3644;DHT22;1838;50.742;7.158;2024-03-02T00:17:57;9.40;99.90
3644;DHT22;1838;50.742;7.158;2024-03-02T00:20:24;9.40;99.90
3644;DHT22;1838;50.742;7.158;2024-03-02T00:23:05;9.40;99.90
3644;DHT22;1838;50.742;7.158;2024-03-02T00:25:48;9.40;99.90
3644;DHT22;1838;50.742;7.158;2024-03-02T00:28:23;9.40;99.90
3644;DHT22;1838;50.742;7.158;2024-03-02T00:30:55;9.50;99.90
3644;DHT22;1838;50.742;7.158;2024-03-02T00:33:23;9.50;99.90
3644;DHT22;1838;50.742;7.158;2024-03-02T00:35:49;9.60;99.90
3644;DHT22;1838;50.742;7.158;2024-03-02T00:38:15;9.60;99.90
3644;DHT22;1838;50.742;7.158;2024-03-02T00:40:42;9.50;99.90
3644;DHT22;1838;50.742;7.158;2024-03-02T00:46:03;9.60;99.90
3644;DHT22;1838;50.742;7.158;2024-03-02T00:48:29;9.60;99.90
3644;DHT22;1838;50.742;7.158;2024-03-02T00:50:56;9.70;99.90
3644;DHT22;1838;50.742;7.158;2024-03-02T00:53:23;9.70;99.90
3644;DHT22;1838;50.742;7.158;2024-03-02T00:55:51;9.70;99.90
3644;DHT22;1838;50.742;7.158;2024-03-02T00:58:16;9.80;99.90
3644;DHT22;1838;50.742;7.158;2024-03-02T01:00:42;9.80;99.90
3644;DHT22;1838;50.742;7.158;2024-03-02T01:03:07;9.80;99.90
3644;DHT22;1838;50.742;7.158;2024-03-02T01:05:33;9.80;99.90
3644;DHT22;1838;50.742;7.158;2024-03-02T01:07:59;9.80;99.90
3644;DHT22;1838;50.742;7.158;2024-03-02T01:10:24;9.70;99.90
3644;DHT22;1838;50.742;7.158;2024-03-02T01:12:51;9.60;99.90
3644;DHT22;1838;50.742;7.158;2024-03-02T01:15:16;9.50;99.90
3644;DHT22;1838;50.742;7.158;2024-03-02T01:17:42;9.40;99.90
3644;DHT22;1838;50.742;7.158;2024-03-02T01:20:08;9.30;99.90
3644;DHT22;1838;50.742;7.158;2024-03-02T01:22:35;9.10;99.90
3644;DHT22;1838;50.742;7.158;2024-03-02T01:25:01;9.00;99.90
3644;DHT22;1838;50.742;7.158;2024-03-02T01:27:27;9.00;99.90
3644;DHT22;1838;50.742;7.158;2024-03-02T01:29:52;9.00;99.90
3644;DHT22;1838;50.742;7.158;2024-03-02T01:32:18;9.00;99.90
3644;DHT22;1838;50.742;7.158;2024-03-02T01:34:43;8.90;99.90
3644;DHT22;1838;50.742;7.158;2024-03-02T01:37:09;8.90;99.90
3644;DHT22;1838;50.742;7.158;2024-03-02T01:39:35;8.90;99.90
3644;DHT22;1838;50.742;7.158;2024-03-02T01:42:01;8.90;99.90
3644;DHT22;1838;50.742;7.158;2024-03-02T01:44:26;8.90;99.90
3644;DHT22;1838;50.742;7.158;2024-03-02T01:46:52;8.80;99.90
3644;DHT22;1838;50.742;7.158;2024-03-02T01:49:18;8.90;99.90
3644;DHT22;1838;50.742;7.158;2024-03-02T01:51:44;8.90;99.90
3644;DHT22;1838;50.742;7.158;2024-03-02T01:54:09;8.80;99.90
3644;DHT22;1838;50.742;7.158;2024-03-02T01:56:35;8.80;99.90
3644;DHT22;1838;50.742;7.158;2024-03-02T01:59:01;8.80;99.90
3644;DHT22;1838;50.742;7.158;2024-03-02T02:01:27;8.70;99.90
3644;DHT22;1838;50.742;7.158;2024-03-02T02:03:52;8.70;99.90
3644;DHT22;1838;50.742;7.158;2024-03-02T02:06:18;8.70;99.90
3644;DHT22;1838;50.742;7.158;2024-03-02T02:08:43;8.70;99.90
3644;DHT22;1838;50.742;7.158;2024-03-02T02:11:09;8.70;99.90
3644;DHT22;1838;50.742;7.158;2024-03-02T02:13:35;8.70;99.90
3644;DHT22;1838;50.742;7.158;2024-03-02T02:16:07;8.70;99.90
3644;DHT22;1838;50.742;7.158;2024-03-02T02:18:33;8.60;99.90
3644;DHT22;1838;50.742;7.158;2024-03-02T02:20:58;8.60;99.90
3644;DHT22;1838;50.742;7.158;2024-03-02T02:23:23;8.60;99.90
3644;DHT22;1838;50.742;7.158;2024-03-02T02:25:49;8.60;99.90
3644;DHT22;1838;50.742;7.158;2024-03-02T02:28:14;8.50;99.90
3644;DHT22;1838;50.742;7.158;2024-03-02T02:30:40;8.50;99.90
3644;DHT22;1838;50.742;7.158;2024-03-02T02:33:05;8.40;99.90
3644;DHT22;1838;50.742;7.158;2024-03-02T02:35:31;8.40;99.90
3644;DHT22;1838;50.742;7.158;2024-03-02T02:37:57;8.40;99.90
3644;DHT22;1838;50.742;7.158;2024-03-02T02:40:24;8.40;99.90
3644;DHT22;1838;50.742;7.158;2024-03-02T02:42:49;8.40;99.90
3644;DHT22;1838;50.742;7.158;2024-03-02T02:45:17;8.40;99.90
3644;DHT22;1838;50.742;7.158;2024-03-02T02:47:44;8.40;99.90
3644;DHT22;1838;50.742;7.158;2024-03-02T02:50:10;8.40;99.90
3644;DHT22;1838;50.742;7.158;2024-03-02T02:52:38;8.40;99.90
3644;DHT22;1838;50.742;7.158;2024-03-02T02:55:06;8.40;99.90
3644;DHT22;1838;50.742;7.158;2024-03-02T02:57:33;8.40;99.90
3644;DHT22;1838;50.742;7.158;2024-03-02T03:00:06;8.40;99.90
3644;DHT22;1838;50.742;7.158;2024-03-02T03:02:36;8.30;99.90
3644;DHT22;1838;50.742;7.158;2024-03-02T03:05:02;8.20;99.90
3644;DHT22;1838;50.742;7.158;2024-03-02T03:07:27;8.20;99.90
3644;DHT22;1838;50.742;7.158;2024-03-02T03:09:53;8.30;99.90
3644;DHT22;1838;50.742;7.158;2024-03-02T03:12:18;8.30;99.90
3644;DHT22;1838;50.742;7.158;2024-03-02T03:14:44;8.20;99.90
3644;DHT22;1838;50.742;7.158;2024-03-02T03:17:09;8.20;99.90
3644;DHT22;1838;50.742;7.158;2024-03-02T03:19:35;8.20;99.90
3644;DHT22;1838;50.742;7.158;2024-03-02T03:22:01;8.20;99.90
3644;DHT22;1838;50.742;7.158;2024-03-02T03:24:26;8.20;99.90
3644;DHT22;1838;50.742;7.158;2024-03-02T03:26:52;8.30;99.90
3644;DHT22;1838;50.742;7.158;2024-03-02T03:29:17;8.30;99.90
3644;DHT22;1838;50.742;7.158;2024-03-02T03:31:43;8.40;99.90
3644;DHT22;1838;50.742;7.158;2024-03-02T03:34:08;8.40;99.90
3644;DHT22;1838;50.742;7.158;2024-03-02T03:36:34;8.30;99.90
3644;DHT22;1838;50.742;7.158;2024-03-02T03:38:59;8.30;99.90
3644;DHT22;1838;50.742;7.158;2024-03-02T03:41:27;8.30;99.90
3644;DHT22;1838;50.742;7.158;2024-03-02T03:43:52;8.30;99.90
3644;DHT22;1838;50.742;7.158;2024-03-02T03:46:18;8.30;99.90
3644;DHT22;1838;50.742;7.158;2024-03-02T03:48:43;8.30;99.90
3644;DHT22;1838;50.742;7.158;2024-03-02T03:51:09;8.30;99.90
3644;DHT22;1838;50.742;7.158;2024-03-02T03:53:35;8.30;99.90
3644;DHT22;1838;50.742;7.158;2024-03-02T03:56:00;8.40;99.90
3644;DHT22;1838;50.742;7.158;2024-03-02T03:58:26;8.40;99.90
3644;DHT22;1838;50.742;7.158;2024-03-02T04:00:51;8.40;99.90
3644;DHT22;1838;50.742;7.158;2024-03-02T04:03:17;8.50;99.90
3644;DHT22;1838;50.742;7.158;2024-03-02T04:05:42;8.50;99.90
3644;DHT22;1838;50.742;7.158;2024-03-02T04:08:08;8.50;99.90
3644;DHT22;1838;50.742;7.158;2024-03-02T04:10:33;8.50;99.90
3644;DHT22;1838;50.742;7.158;2024-03-02T04:12:59;8.40;99.90
3644;DHT22;1838;50.742;7.158;2024-03-02T04:15:25;8.50;99.90
3644;DHT22;1838;50.742;7.158;2024-03-02T04:17:50;8.50;99.90
3644;DHT22;1838;50.742;7.158;2024-03-02T04:20:16;8.40;99.90
3644;DHT22;1838;50.742;7.158;2024-03-02T04:22:41;8.50;99.90
3644;DHT22;1838;50.742;7.158;2024-03-02T04:25:07;8.50;99.90
3644;DHT22;1838;50.742;7.158;2024-03-02T04:27:33;8.50;99.90
3644;DHT22;1838;50.742;7.158;2024-03-02T04:29:59;8.50;99.90
3644;DHT22;1838;50.742;7.158;2024-03-02T04:32:26;8.40;99.90
3644;DHT22;1838;50.742;7.158;2024-03-02T04:34:52;8.40;99.90
3644;DHT22;1838;50.742;7.158;2024-03-02T04:37:17;8.30;99.90
3644;DHT22;1838;50.742;7.158;2024-03-02T04:39:43;8.30;99.90
3644;DHT22;1838;50.742;7.158;2024-03-02T04:42:08;8.30;99.90
3644;DHT22;1838;50.742;7.158;2024-03-02T04:44:34;8.30;99.90
3644;DHT22;1838;50.742;7.158;2024-03-02T04:46:59;8.30;99.90
3644;DHT22;1838;50.742;7.158;2024-03-02T04:49:25;8.20;99.90
3644;DHT22;1838;50.742;7.158;2024-03-02T04:51:50;8.20;99.90
3644;DHT22;1838;50.742;7.158;2024-03-02T04:54:16;8.10;99.90
3644;DHT22;1838;50.742;7.158;2024-03-02T04:56:42;8.10;99.90
3644;DHT22;1838;50.742;7.158;2024-03-02T04:59:17;8.10;99.90
3644;DHT22;1838;50.742;7.158;2024-03-02T05:01:43;8.10;99.90
3644;DHT22;1838;50.742;7.158;2024-03-02T05:04:09;8.10;99.90
3644;DHT22;1838;50.742;7.158;2024-03-02T05:06:40;8.10;99.90
3644;DHT22;1838;50.742;7.158;2024-03-02T05:09:06;8.20;99.90
3644;DHT22;1838;50.742;7.158;2024-03-02T05:11:32;8.10;99.90
3644;DHT22;1838;50.742;7.158;2024-03-02T05:14:05;8.10;99.90
3644;DHT22;1838;50.742;7.158;2024-03-02T05:16:37;8.10;99.90
3644;DHT22;1838;50.742;7.158;2024-03-02T05:19:07;8.10;99.90
3644;DHT22;1838;50.742;7.158;2024-03-02T05:21:33;8.10;99.90
3644;DHT22;1838;50.742;7.158;2024-03-02T05:23:59;8.10;99.90
3644;DHT22;1838;50.742;7.158;2024-03-02T05:26:24;8.10;99.90
3644;DHT22;1838;50.742;7.158;2024-03-02T05:28:50;8.10;99.90
3644;DHT22;1838;50.742;7.158;2024-03-02T05:31:15;8.20;99.90
3644;DHT22;1838;50.742;7.158;2024-03-02T05:33:42;8.20;99.90
3644;DHT22;1838;50.742;7.158;2024-03-02T05:36:08;8.10;99.90
3644;DHT22;1838;50.742;7.158;2024-03-02T05:38:36;8.10;99.90
3644;DHT22;1838;50.742;7.158;2024-03-02T05:41:02;8.10;99.90
3644;DHT22;1838;50.742;7.158;2024-03-02T05:43:28;8.20;99.90
3644;DHT22;1838;50.742;7.158;2024-03-02T05:45:54;8.20;99.90
3644;DHT22;1838;50.742;7.158;2024-03-02T05:48:19;8.30;99.90
3644;DHT22;1838;50.742;7.158;2024-03-02T05:50:45;8.30;99.90
3644;DHT22;1838;50.742;7.158;2024-03-02T05:53:10;8.30;99.90
3644;DHT22;1838;50.742;7.158;2024-03-02T05:55:36;8.30;99.90
3644;DHT22;1838;50.742;7.158;2024-03-02T05:58:01;8.30;99.90
3644;DHT22;1838;50.742;7.158;2024-03-02T06:00:45;8.30;99.90
3644;DHT22;1838;50.742;7.158;2024-03-02T06:03:11;8.20;99.90
3644;DHT22;1838;50.742;7.158;2024-03-02T06:05:37;8.20;99.90
3644;DHT22;1838;50.742;7.158;2024-03-02T06:08:02;8.20;99.90
3644;DHT22;1838;50.742;7.158;2024-03-02T06:10:28;8.20;99.90
3644;DHT22;1838;50.742;7.158;2024-03-02T06:12:53;8.10;99.90
3644;DHT22;1838;50.742;7.158;2024-03-02T06:15:19;8.10;99.90
3644;DHT22;1838;50.742;7.158;2024-03-02T06:17:44;8.10;99.90
3644;DHT22;1838;50.742;7.158;2024-03-02T06:20:10;8.00;99.90
3644;DHT22;1838;50.742;7.158;2024-03-02T06:22:36;8.00;99.90
3644;DHT22;1838;50.742;7.158;2024-03-02T06:25:01;8.00;99.90
3644;DHT22;1838;50.742;7.158;2024-03-02T06:27:27;8.00;99.90
3644;DHT22;1838;50.742;7.158;2024-03-02T06:29:52;8.00;99.90
3644;DHT22;1838;50.742;7.158;2024-03-02T06:32:18;8.00;99.90
3644;DHT22;1838;50.742;7.158;2024-03-02T06:34:44;8.00;99.90
3644;DHT22;1838;50.742;7.158;2024-03-02T06:37:09;8.10;99.90
3644;DHT22;1838;50.742;7.158;2024-03-02T06:39:35;8.00;99.90
3644;DHT22;1838;50.742;7.158;2024-03-02T06:42:01;8.10;99.90
3644;DHT22;1838;50.742;7.158;2024-03-02T06:44:27;8.10;99.90
3644;DHT22;1838;50.742;7.158;2024-03-02T06:46:52;8.10;99.90
3644;DHT22;1838;50.742;7.158;2024-03-02T06:49:18;8.20;99.90
3644;DHT22;1838;50.742;7.158;2024-03-02T06:51:44;8.20;99.90
3644;DHT22;1838;50.742;7.158;2024-03-02T06:54:10;8.30;99.90
3644;DHT22;1838;50.742;7.158;2024-03-02T06:56:35;8.30;99.90
3644;DHT22;1838;50.742;7.158;2024-03-02T06:59:01;8.30;99.90
3644;DHT22;1838;50.742;7.158;2024-03-02T07:01:26;8.40;99.90
3644;DHT22;1838;50.742;7.158;2024-03-02T07:03:53;8.40;99.90
3644;DHT22;1838;50.742;7.158;2024-03-02T07:06:19;8.50;99.90
3644;DHT22;1838;50.742;7.158;2024-03-02T07:08:44;8.50;99.90
3644;DHT22;1838;50.742;7.158;2024-03-02T07:11:10;8.60;99.90
3644;DHT22;1838;50.742;7.158;2024-03-02T07:13:35;8.70;99.90
3644;DHT22;1838;50.742;7.158;2024-03-02T07:16:01;8.70;99.90
3644;DHT22;1838;50.742;7.158;2024-03-02T07:18:30;8.80;99.90
3644;DHT22;1838;50.742;7.158;2024-03-02T07:20:56;8.80;99.90
3644;DHT22;1838;50.742;7.158;2024-03-02T07:23:23;8.80;99.90
3644;DHT22;1838;50.742;7.158;2024-03-02T07:25:52;8.70;99.90
3644;DHT22;1838;50.742;7.158;2024-03-02T07:28:20;8.70;99.90
3644;DHT22;1838;50.742;7.158;2024-03-02T07:30:46;8.80;99.90
3644;DHT22;1838;50.742;7.158;2024-03-02T07:33:11;8.90;99.90
3644;DHT22;1838;50.742;7.158;2024-03-02T07:35:37;9.00;99.90
3644;DHT22;1838;50.742;7.158;2024-03-02T07:38:03;9.00;99.90
3644;DHT22;1838;50.742;7.158;2024-03-02T07:40:29;9.10;99.90
3644;DHT22;1838;50.742;7.158;2024-03-02T07:42:54;9.10;99.90
3644;DHT22;1838;50.742;7.158;2024-03-02T07:45:20;9.00;99.90
3644;DHT22;1838;50.742;7.158;2024-03-02T07:47:46;9.00;99.90
3644;DHT22;1838;50.742;7.158;2024-03-02T07:50:12;9.00;99.90
3644;DHT22;1838;50.742;7.158;2024-03-02T07:52:37;9.10;99.90
3644;DHT22;1838;50.742;7.158;2024-03-02T07:55:03;9.10;99.90
3644;DHT22;1838;50.742;7.158;2024-03-02T07:57:28;9.10;99.90
3644;DHT22;1838;50.742;7.158;2024-03-02T07:59:54;9.20;99.90
3644;DHT22;1838;50.742;7.158;2024-03-02T08:02:20;9.30;99.90
3644;DHT22;1838;50.742;7.158;2024-03-02T08:04:46;9.30;99.90
3644;DHT22;1838;50.742;7.158;2024-03-02T08:07:11;9.40;99.90
3644;DHT22;1838;50.742;7.158;2024-03-02T08:09:37;9.50;99.90
3644;DHT22;1838;50.742;7.158;2024-03-02T08:12:03;9.60;99.90
3644;DHT22;1838;50.742;7.158;2024-03-02T08:14:28;9.70;99.90
3644;DHT22;1838;50.742;7.158;2024-03-02T08:16:54;9.80;99.90
3644;DHT22;1838;50.742;7.158;2024-03-02T08:19:19;9.80;99.90
3644;DHT22;1838;50.742;7.158;2024-03-02T08:21:45;9.80;99.90
3644;DHT22;1838;50.742;7.158;2024-03-02T08:24:11;10.00;99.90
3644;DHT22;1838;50.742;7.158;2024-03-02T08:26:36;10.10;99.90
3644;DHT22;1838;50.742;7.158;2024-03-02T08:29:02;10.20;99.90
3644;DHT22;1838;50.742;7.158;2024-03-02T08:31:29;10.30;99.90
3644;DHT22;1838;50.742;7.158;2024-03-02T08:33:54;10.40;99.90
3644;DHT22;1838;50.742;7.158;2024-03-02T08:36:20;10.40;99.90
3644;DHT22;1838;50.742;7.158;2024-03-02T08:38:46;10.50;99.90
3644;DHT22;1838;50.742;7.158;2024-03-02T08:41:13;10.60;99.90
3644;DHT22;1838;50.742;7.158;2024-03-02T08:43:40;10.80;99.90
3644;DHT22;1838;50.742;7.158;2024-03-02T08:46:06;10.90;99.90
3644;DHT22;1838;50.742;7.158;2024-03-02T08:48:32;11.00;99.90
3644;DHT22;1838;50.742;7.158;2024-03-02T08:50:57;11.10;99.90
3644;DHT22;1838;50.742;7.158;2024-03-02T08:53:23;11.20;99.90
3644;DHT22;1838;50.742;7.158;2024-03-02T08:55:48;11.30;99.90
3644;DHT22;1838;50.742;7.158;2024-03-02T08:58:14;11.40;99.90
3644;DHT22;1838;50.742;7.158;2024-03-02T09:00:40;11.40;99.90
3644;DHT22;1838;50.742;7.158;2024-03-02T09:03:06;11.30;99.90
3644;DHT22;1838;50.742;7.158;2024-03-02T09:05:31;11.30;99.90
3644;DHT22;1838;50.742;7.158;2024-03-02T09:07:57;11.30;99.90
3644;DHT22;1838;50.742;7.158;2024-03-02T09:10:22;11.40;99.90
3644;DHT22;1838;50.742;7.158;2024-03-02T09:12:48;11.40;99.90
3644;DHT22;1838;50.742;7.158;2024-03-02T09:15:13;11.50;99.90
3644;DHT22;1838;50.742;7.158;2024-03-02T09:17:39;11.60;99.90
3644;DHT22;1838;50.742;7.158;2024-03-02T09:20:06;11.80;99.90
3644;DHT22;1838;50.742;7.158;2024-03-02T09:22:31;12.00;99.90
3644;DHT22;1838;50.742;7.158;2024-03-02T09:24:57;12.20;99.90
3644;DHT22;1838;50.742;7.158;2024-03-02T09:27:23;12.40;99.90
3644;DHT22;1838;50.742;7.158;2024-03-02T09:29:49;12.40;99.90
3644;DHT22;1838;50.742;7.158;2024-03-02T09:32:15;12.40;99.90
3644;DHT22;1838;50.742;7.158;2024-03-02T09:34:41;12.40;99.90
3644;DHT22;1838;50.742;7.158;2024-03-02T09:37:06;12.50;99.90
3644;DHT22;1838;50.742;7.158;2024-03-02T09:39:32;12.70;99.90
3644;DHT22;1838;50.742;7.158;2024-03-02T09:41:58;12.80;99.90
3644;DHT22;1838;50.742;7.158;2024-03-02T09:44:25;12.90;99.90
3644;DHT22;1838;50.742;7.158;2024-03-02T09:46:51;13.00;99.90
3644;DHT22;1838;50.742;7.158;2024-03-02T09:49:17;13.20;99.90
3644;DHT22;1838;50.742;7.158;2024-03-02T09:51:47;13.30;99.90
3644;DHT22;1838;50.742;7.158;2024-03-02T09:54:13;13.40;99.90
3644;DHT22;1838;50.742;7.158;2024-03-02T09:56:39;13.40;99.90
3644;DHT22;1838;50.742;7.158;2024-03-02T09:59:04;13.30;99.90
3644;DHT22;1838;50.742;7.158;2024-03-02T10:01:30;13.30;99.90
3644;DHT22;1838;50.742;7.158;2024-03-02T10:03:59;13.50;99.90
3644;DHT22;1838;50.742;7.158;2024-03-02T10:06:26;13.50;99.90
3644;DHT22;1838;50.742;7.158;2024-03-02T10:08:53;13.60;99.90
3644;DHT22;1838;50.742;7.158;2024-03-02T10:11:30;13.70;99.90
3644;DHT22;1838;50.742;7.158;2024-03-02T10:14:10;13.80;99.90
3644;DHT22;1838;50.742;7.158;2024-03-02T10:16:37;13.80;99.90
3644;DHT22;1838;50.742;7.158;2024-03-02T10:19:16;13.90;99.90
3644;DHT22;1838;50.742;7.158;2024-03-02T10:21:54;14.00;99.90
3644;DHT22;1838;50.742;7.158;2024-03-02T10:24:21;14.20;99.90
3644;DHT22;1838;50.742;7.158;2024-03-02T10:26:48;14.30;99.90
3644;DHT22;1838;50.742;7.158;2024-03-02T10:29:14;14.30;99.90
3644;DHT22;1838;50.742;7.158;2024-03-02T10:31:42;14.10;99.90
3644;DHT22;1838;50.742;7.158;2024-03-02T10:34:09;14.10;99.90
3644;DHT22;1838;50.742;7.158;2024-03-02T10:36:37;13.60;99.90
3644;DHT22;1838;50.742;7.158;2024-03-02T10:39:06;13.30;99.90
3644;DHT22;1838;50.742;7.158;2024-03-02T10:41:34;13.20;99.90
3644;DHT22;1838;50.742;7.158;2024-03-02T10:44:04;13.20;99.90
3644;DHT22;1838;50.742;7.158;2024-03-02T10:46:31;13.30;99.90
3644;DHT22;1838;50.742;7.158;2024-03-02T10:48:57;13.40;99.90
3644;DHT22;1838;50.742;7.158;2024-03-02T10:51:28;13.50;99.90
3644;DHT22;1838;50.742;7.158;2024-03-02T10:53:57;13.60;99.90
3644;DHT22;1838;50.742;7.158;2024-03-02T10:56:30;13.70;99.90
3644;DHT22;1838;50.742;7.158;2024-03-02T10:59:06;13.80;99.90
3644;DHT22;1838;50.742;7.158;2024-03-02T11:01:39;14.00;99.90
3644;DHT22;1838;50.742;7.158;2024-03-02T11:04:08;14.10;99.90
3644;DHT22;1838;50.742;7.158;2024-03-02T11:06:35;13.90;99.90
3644;DHT22;1838;50.742;7.158;2024-03-02T11:09:07;13.70;99.90
3644;DHT22;1838;50.742;7.158;2024-03-02T11:11:43;13.70;99.90
3644;DHT22;1838;50.742;7.158;2024-03-02T11:14:14;13.70;99.90
3644;DHT22;1838;50.742;7.158;2024-03-02T11:16:42;13.70;99.90
3644;DHT22;1838;50.742;7.158;2024-03-02T11:19:10;13.60;99.90
3644;DHT22;1838;50.742;7.158;2024-03-02T11:21:37;13.60;99.90
3644;DHT22;1838;50.742;7.158;2024-03-02T11:26:47;13.60;99.90
3644;DHT22;1838;50.742;7.158;2024-03-02T11:32:01;13.90;99.90
3644;DHT22;1838;50.742;7.158;2024-03-02T11:34:32;14.00;99.90
3644;DHT22;1838;50.742;7.158;2024-03-02T11:36:59;14.10;99.90
3644;DHT22;1838;50.742;7.158;2024-03-02T11:39:26;14.20;99.90
3644;DHT22;1838;50.742;7.158;2024-03-02T11:41:51;14.40;99.90
3644;DHT22;1838;50.742;7.158;2024-03-02T11:44:17;14.40;99.90
3644;DHT22;1838;50.742;7.158;2024-03-02T11:46:45;14.40;99.90
3644;DHT22;1838;50.742;7.158;2024-03-02T11:49:14;14.20;99.90
3644;DHT22;1838;50.742;7.158;2024-03-02T11:51:53;14.10;99.90
3644;DHT22;1838;50.742;7.158;2024-03-02T11:54:25;14.10;99.90
3644;DHT22;1838;50.742;7.158;2024-03-02T11:56:53;14.00;99.90
3644;DHT22;1838;50.742;7.158;2024-03-02T11:59:20;14.10;99.90
3644;DHT22;1838;50.742;7.158;2024-03-02T12:01:47;14.20;99.90
3644;DHT22;1838;50.742;7.158;2024-03-02T12:04:13;14.30;99.90
3644;DHT22;1838;50.742;7.158;2024-03-02T12:06:39;14.40;99.90
3644;DHT22;1838;50.742;7.158;2024-03-02T12:09:05;14.40;99.90
3644;DHT22;1838;50.742;7.158;2024-03-02T12:11:30;14.40;99.90
3644;DHT22;1838;50.742;7.158;2024-03-02T12:13:56;14.40;99.90
3644;DHT22;1838;50.742;7.158;2024-03-02T12:16:26;14.30;99.90
3644;DHT22;1838;50.742;7.158;2024-03-02T12:18:51;14.40;99.90
3644;DHT22;1838;50.742;7.158;2024-03-02T12:21:17;14.50;99.90
3644;DHT22;1838;50.742;7.158;2024-03-02T12:23:42;14.50;99.90
3644;DHT22;1838;50.742;7.158;2024-03-02T12:26:08;14.50;99.90
3644;DHT22;1838;50.742;7.158;2024-03-02T12:28:34;14.50;99.90
3644;DHT22;1838;50.742;7.158;2024-03-02T12:31:00;14.50;99.90
3644;DHT22;1838;50.742;7.158;2024-03-02T12:33:25;14.60;99.90
3644;DHT22;1838;50.742;7.158;2024-03-02T12:35:52;14.70;99.90
3644;DHT22;1838;50.742;7.158;2024-03-02T12:38:18;14.70;99.90
3644;DHT22;1838;50.742;7.158;2024-03-02T12:40:44;14.70;99.90
3644;DHT22;1838;50.742;7.158;2024-03-02T12:43:10;14.70;99.90
3644;DHT22;1838;50.742;7.158;2024-03-02T12:45:36;14.70;99.90
3644;DHT22;1838;50.742;7.158;2024-03-02T12:48:02;14.70;99.90
3644;DHT22;1838;50.742;7.158;2024-03-02T12:50:29;14.70;99.90
3644;DHT22;1838;50.742;7.158;2024-03-02T12:52:55;14.60;99.90
3644;DHT22;1838;50.742;7.158;2024-03-02T12:55:22;14.60;99.90
3644;DHT22;1838;50.742;7.158;2024-03-02T12:57:50;14.70;99.90
3644;DHT22;1838;50.742;7.158;2024-03-02T13:00:18;14.80;99.90
3644;DHT22;1838;50.742;7.158;2024-03-02T13:02:46;15.00;99.90
3644;DHT22;1838;50.742;7.158;2024-03-02T13:05:12;15.00;99.90
3644;DHT22;1838;50.742;7.158;2024-03-02T13:07:39;15.10;99.90
3644;DHT22;1838;50.742;7.158;2024-03-02T13:10:06;15.10;99.90
3644;DHT22;1838;50.742;7.158;2024-03-02T13:12:35;15.30;99.90
3644;DHT22;1838;50.742;7.158;2024-03-02T13:15:02;15.40;99.90
3644;DHT22;1838;50.742;7.158;2024-03-02T13:17:29;15.50;99.90
3644;DHT22;1838;50.742;7.158;2024-03-02T13:19:58;15.60;99.90
3644;DHT22;1838;50.742;7.158;2024-03-02T13:22:25;15.40;99.90
3644;DHT22;1838;50.742;7.158;2024-03-02T13:24:51;15.40;99.90
3644;DHT22;1838;50.742;7.158;2024-03-02T13:27:17;15.40;99.90
3644;DHT22;1838;50.742;7.158;2024-03-02T13:29:46;15.50;99.90
3644;DHT22;1838;50.742;7.158;2024-03-02T13:32:15;15.40;99.90
3644;DHT22;1838;50.742;7.158;2024-03-02T13:34:41;15.40;99.90
3644;DHT22;1838;50.742;7.158;2024-03-02T13:37:07;15.40;99.90
3644;DHT22;1838;50.742;7.158;2024-03-02T13:39:33;15.60;99.90
3644;DHT22;1838;50.742;7.158;2024-03-02T13:42:08;15.60;99.90
3644;DHT22;1838;50.742;7.158;2024-03-02T13:44:34;15.60;99.90
3644;DHT22;1838;50.742;7.158;2024-03-02T13:47:00;15.50;99.90
3644;DHT22;1838;50.742;7.158;2024-03-02T13:49:26;15.50;99.90
3644;DHT22;1838;50.742;7.158;2024-03-02T13:52:07;15.40;99.90
3644;DHT22;1838;50.742;7.158;2024-03-02T13:54:38;15.30;99.90
3644;DHT22;1838;50.742;7.158;2024-03-02T13:57:05;15.30;99.90
3644;DHT22;1838;50.742;7.158;2024-03-02T13:59:30;15.40;99.90
3644;DHT22;1838;50.742;7.158;2024-03-02T14:01:56;15.50;99.90
3644;DHT22;1838;50.742;7.158;2024-03-02T14:04:21;15.50;99.90
3644;DHT22;1838;50.742;7.158;2024-03-02T14:06:47;15.40;99.90
3644;DHT22;1838;50.742;7.158;2024-03-02T14:09:13;15.60;99.90
3644;DHT22;1838;50.742;7.158;2024-03-02T14:11:38;15.60;99.90
3644;DHT22;1838;50.742;7.158;2024-03-02T14:14:04;15.60;99.90
3644;DHT22;1838;50.742;7.158;2024-03-02T14:16:29;15.40;99.90
3644;DHT22;1838;50.742;7.158;2024-03-02T14:18:55;15.30;99.90
3644;DHT22;1838;50.742;7.158;2024-03-02T14:21:21;15.00;99.90
3644;DHT22;1838;50.742;7.158;2024-03-02T14:23:47;14.90;99.90
3644;DHT22;1838;50.742;7.158;2024-03-02T14:26:12;14.80;99.90
3644;DHT22;1838;50.742;7.158;2024-03-02T14:28:38;14.70;99.90
3644;DHT22;1838;50.742;7.158;2024-03-02T14:31:03;14.60;99.90
3644;DHT22;1838;50.742;7.158;2024-03-02T14:33:29;14.60;99.90
3644;DHT22;1838;50.742;7.158;2024-03-02T14:35:54;14.50;99.90
3644;DHT22;1838;50.742;7.158;2024-03-02T14:38:20;14.50;99.90
3644;DHT22;1838;50.742;7.158;2024-03-02T14:40:46;14.50;99.90
3644;DHT22;1838;50.742;7.158;2024-03-02T14:43:11;14.40;99.90
3644;DHT22;1838;50.742;7.158;2024-03-02T14:45:37;14.40;99.90
3644;DHT22;1838;50.742;7.158;2024-03-02T14:48:03;14.40;99.90
3644;DHT22;1838;50.742;7.158;2024-03-02T14:50:29;14.40;99.90
3644;DHT22;1838;50.742;7.158;2024-03-02T14:52:54;14.50;99.90
3644;DHT22;1838;50.742;7.158;2024-03-02T14:55:23;14.50;99.90
3644;DHT22;1838;50.742;7.158;2024-03-02T14:57:49;14.50;99.90
3644;DHT22;1838;50.742;7.158;2024-03-02T15:00:14;14.50;99.90
3644;DHT22;1838;50.742;7.158;2024-03-02T15:02:40;14.60;99.90
3644;DHT22;1838;50.742;7.158;2024-03-02T15:05:06;14.60;99.90
3644;DHT22;1838;50.742;7.158;2024-03-02T15:07:32;14.60;99.90
3644;DHT22;1838;50.742;7.158;2024-03-02T15:09:57;14.60;99.90
3644;DHT22;1838;50.742;7.158;2024-03-02T15:12:23;14.60;99.90
3644;DHT22;1838;50.742;7.158;2024-03-02T15:14:49;14.60;99.90
3644;DHT22;1838;50.742;7.158;2024-03-02T15:17:15;14.60;99.90
3644;DHT22;1838;50.742;7.158;2024-03-02T15:19:42;14.70;99.90
3644;DHT22;1838;50.742;7.158;2024-03-02T15:22:08;14.70;99.90
3644;DHT22;1838;50.742;7.158;2024-03-02T15:24:34;14.70;99.90
3644;DHT22;1838;50.742;7.158;2024-03-02T15:26:59;14.70;99.90
3644;DHT22;1838;50.742;7.158;2024-03-02T15:29:25;14.70;99.90
3644;DHT22;1838;50.742;7.158;2024-03-02T15:31:54;14.70;99.90
3644;DHT22;1838;50.742;7.158;2024-03-02T15:34:20;14.70;99.90
3644;DHT22;1838;50.742;7.158;2024-03-02T15:36:46;14.70;99.90
3644;DHT22;1838;50.742;7.158;2024-03-02T15:39:11;14.70;99.90
3644;DHT22;1838;50.742;7.158;2024-03-02T15:41:37;14.70;99.90
3644;DHT22;1838;50.742;7.158;2024-03-02T15:44:05;14.70;99.90
3644;DHT22;1838;50.742;7.158;2024-03-02T15:46:33;14.60;99.90
3644;DHT22;1838;50.742;7.158;2024-03-02T15:48:58;14.60;99.90
3644;DHT22;1838;50.742;7.158;2024-03-02T15:51:26;14.50;99.90
3644;DHT22;1838;50.742;7.158;2024-03-02T15:53:51;14.50;99.90
3644;DHT22;1838;50.742;7.158;2024-03-02T15:56:17;14.50;99.90
3644;DHT22;1838;50.742;7.158;2024-03-02T15:58:42;14.40;99.90
3644;DHT22;1838;50.742;7.158;2024-03-02T16:01:08;14.40;99.90
3644;DHT22;1838;50.742;7.158;2024-03-02T16:03:33;14.40;99.90
3644;DHT22;1838;50.742;7.158;2024-03-02T16:05:59;14.40;99.90
3644;DHT22;1838;50.742;7.158;2024-03-02T16:08:25;14.40;99.90
3644;DHT22;1838;50.742;7.158;2024-03-02T16:10:50;14.50;99.90
3644;DHT22;1838;50.742;7.158;2024-03-02T16:13:16;14.60;99.90
3644;DHT22;1838;50.742;7.158;2024-03-02T16:15:44;14.60;99.90